Time;durP1;ratioP1;P1;durP2;ratioP2;P2;SDS_P1;SDS_P2;PMS_P1;PMS_P2;Temp;Humidity;BMP_temperature;BMP_pressure;BME280_temperature;BME280_humidity;BME280_pressure;Samples;Min_cycle;Max_cycle;Signal;HPM_P1;HPM_P2
2023/10/04 00:00:27;;;;;;;9.02;1.90;;;12.00;99.90;;;;;;5052714;28;20052;-66
2023/10/04 00:02:54;;;;;;;4.95;1.83;;;12.00;99.90;;;;;;5053527;28;20045;-65
2023/10/04 00:05:24;;;;;;;3.63;1.83;;;12.00;99.90;;;;;;5049987;28;20047;-66
2023/10/04 00:07:55;;;;;;;7.32;2.05;;;11.90;99.90;;;;;;5049134;28;20124;-63
2023/10/04 00:10:23;;;;;;;4.18;2.10;;;11.90;99.90;;;;;;5050296;28;20041;-63
2023/10/04 00:12:52;;;;;;;7.57;2.60;;;11.90;99.90;;;;;;5054657;28;20044;-68
2023/10/04 00:15:20;;;;;;;6.95;2.83;;;11.90;99.90;;;;;;5056988;28;20132;-66
2023/10/04 00:17:48;;;;;;;4.18;1.60;;;11.90;99.90;;;;;;5038400;28;20049;-64
2023/10/04 00:20:19;;;;;;;3.33;1.85;;;11.90;99.90;;;;;;5056372;28;20059;-63
2023/10/04 00:22:46;;;;;;;5.82;2.05;;;11.90;99.90;;;;;;5037548;28;20730;-62
2023/10/04 00:25:21;;;;;;;6.03;2.13;;;11.90;99.90;;;;;;5051296;28;20041;-67
2023/10/04 00:27:52;;;;;;;7.53;2.70;;;11.90;99.90;;;;;;5051957;28;20044;-68
2023/10/04 00:30:19;;;;;;;7.53;2.95;;;11.90;99.90;;;;;;5051611;28;20048;-66
2023/10/04 00:32:47;;;;;;;9.77;3.47;;;11.90;99.90;;;;;;5053450;28;20139;-63
2023/10/04 00:35:17;;;;;;;6.88;2.53;;;11.90;99.90;;;;;;5051315;28;20051;-64
2023/10/04 00:37:50;;;;;;;6.55;2.63;;;11.90;99.90;;;;;;5055265;28;20470;-63
2023/10/04 00:40:24;;;;;;;5.00;2.40;;;11.90;99.90;;;;;;5051282;28;20049;-66
2023/10/04 00:42:51;;;;;;;4.45;1.95;;;11.90;99.90;;;;;;5049293;28;20474;-63
2023/10/04 00:45:20;;;;;;;4.88;2.13;;;11.90;99.90;;;;;;5055865;28;20044;-67
2023/10/04 00:47:52;;;;;;;7.32;1.73;;;11.90;99.90;;;;;;5048585;28;20040;-62
2023/10/04 00:50:34;;;;;;;4.47;1.80;;;11.90;99.90;;;;;;5075653;28;20041;-67
2023/10/04 00:53:25;;;;;;;5.45;2.33;;;11.90;99.90;;;;;;5057451;28;20048;-62
2023/10/04 00:55:57;;;;;;;5.18;2.00;;;12.00;99.90;;;;;;5056973;28;20045;-63
2023/10/04 00:58:24;;;;;;;6.97;2.00;;;11.90;99.90;;;;;;5055484;28;20124;-65
2023/10/04 01:00:51;;;;;;;6.20;1.48;;;11.90;99.90;;;;;;5054937;28;20087;-64
2023/10/04 01:03:20;;;;;;;5.45;2.00;;;11.90;99.90;;;;;;5053028;28;20045;-66
2023/10/04 01:05:50;;;;;;;6.75;2.22;;;12.00;99.90;;;;;;5056422;28;20048;-63
2023/10/04 01:08:21;;;;;;;2.45;1.85;;;12.00;99.90;;;;;;5038997;28;20198;-64
2023/10/04 01:10:50;;;;;;;6.35;2.72;;;11.90;99.90;;;;;;5053499;28;20127;-65
2023/10/04 01:13:20;;;;;;;6.55;2.60;;;11.90;99.90;;;;;;5056660;28;20071;-67
2023/10/04 01:15:49;;;;;;;4.43;1.85;;;11.90;99.90;;;;;;5051989;28;20056;-66
2023/10/04 01:18:16;;;;;;;9.10;2.03;;;12.00;99.90;;;;;;5057897;28;20049;-68
2023/10/04 01:20:45;;;;;;;5.30;2.08;;;12.00;99.90;;;;;;5058626;28;21333;-63
2023/10/04 01:23:13;;;;;;;3.55;1.95;;;12.00;99.90;;;;;;5037874;28;20052;-64
2023/10/04 01:25:42;;;;;;;7.00;2.85;;;12.00;99.90;;;;;;5057440;28;20080;-66
2023/10/04 01:28:12;;;;;;;4.45;2.00;;;12.00;99.90;;;;;;5052147;28;20040;-63
2023/10/04 01:30:43;;;;;;;5.22;2.70;;;12.10;99.90;;;;;;5053184;28;20037;-62
2023/10/04 01:33:15;;;;;;;6.40;2.10;;;12.10;99.90;;;;;;5051579;28;20045;-62
2023/10/04 01:35:45;;;;;;;4.53;2.88;;;12.00;99.90;;;;;;5053453;28;20119;-63
2023/10/04 01:38:13;;;;;;;5.88;2.03;;;12.00;99.90;;;;;;5057816;28;20086;-64
2023/10/04 01:40:43;;;;;;;5.40;2.75;;;12.10;99.90;;;;;;5034896;28;20406;-62
2023/10/04 01:43:14;;;;;;;9.15;4.07;;;12.10;99.90;;;;;;5055067;28;20048;-61
2023/10/04 01:45:50;;;;;;;4.38;1.63;;;12.00;99.90;;;;;;5060528;28;20744;-64
2023/10/04 01:48:20;;;;;;;7.55;2.90;;;12.10;99.90;;;;;;5055645;28;20371;-69
2023/10/04 01:50:48;;;;;;;2.63;2.00;;;12.10;99.90;;;;;;5055735;28;20052;-63
2023/10/04 01:53:18;;;;;;;11.20;3.00;;;12.10;99.90;;;;;;5057520;28;20432;-63
2023/10/04 01:55:44;;;;;;;5.93;2.30;;;12.10;99.90;;;;;;5058305;28;20110;-65
2023/10/04 01:58:13;;;;;;;6.88;3.33;;;12.20;99.90;;;;;;5037519;28;20094;-62
2023/10/04 02:00:40;;;;;;;8.55;1.98;;;12.20;99.90;;;;;;5052207;28;20459;-64
2023/10/04 02:03:08;;;;;;;5.72;3.63;;;12.20;99.90;;;;;;5051567;28;20060;-66
2023/10/04 02:05:40;;;;;;;6.97;1.92;;;12.10;99.90;;;;;;5054357;28;20536;-66
2023/10/04 02:08:12;;;;;;;5.07;3.28;;;12.10;99.90;;;;;;5059614;28;20145;-63
2023/10/04 02:10:44;;;;;;;10.43;3.80;;;12.20;99.90;;;;;;5053379;28;20119;-63
2023/10/04 02:13:15;;;;;;;10.85;2.63;;;12.10;99.90;;;;;;5057524;28;20382;-65
2023/10/04 02:15:47;;;;;;;5.97;1.77;;;12.10;99.90;;;;;;5057624;28;20052;-65
2023/10/04 02:18:19;;;;;;;5.75;2.50;;;12.20;99.90;;;;;;5073218;28;20040;-64
2023/10/04 02:20:48;;;;;;;8.68;2.70;;;12.10;99.90;;;;;;5052279;28;20040;-64
2023/10/04 02:23:16;;;;;;;9.50;3.47;;;12.10;99.90;;;;;;5034623;28;20036;-66
2023/10/04 02:25:46;;;;;;;12.10;2.35;;;12.20;99.90;;;;;;5052897;28;20131;-62
2023/10/04 02:28:18;;;;;;;4.53;2.65;;;12.10;99.90;;;;;;5051764;28;20041;-64
2023/10/04 02:30:47;;;;;;;4.05;2.47;;;12.20;99.90;;;;;;5055369;28;20045;-62
2023/10/04 02:33:16;;;;;;;11.55;2.22;;;12.10;99.90;;;;;;5021847;28;20053;-65
2023/10/04 02:35:46;;;;;;;8.00;2.55;;;12.10;99.90;;;;;;5052188;28;20055;-62
2023/10/04 02:38:19;;;;;;;11.45;2.90;;;12.20;99.90;;;;;;5056915;28;20043;-64
2023/10/04 02:40:50;;;;;;;10.27;3.33;;;12.20;99.90;;;;;;5035445;28;20116;-62
2023/10/04 02:43:18;;;;;;;8.68;2.95;;;12.20;99.90;;;;;;5039970;28;20068;-62
2023/10/04 02:45:47;;;;;;;10.73;3.65;;;12.10;99.90;;;;;;5053296;28;20045;-63
2023/10/04 02:48:14;;;;;;;3.00;1.85;;;12.20;99.90;;;;;;5056784;28;20087;-67
2023/10/04 02:50:42;;;;;;;6.10;2.13;;;12.20;99.90;;;;;;5040640;28;20118;-62
2023/10/04 02:53:19;;;;;;;13.73;3.25;;;12.20;99.90;;;;;;5051348;28;20402;-66
2023/10/04 02:55:47;;;;;;;8.73;3.72;;;12.20;99.90;;;;;;5055956;28;20173;-63
2023/10/04 02:58:16;;;;;;;10.75;3.15;;;12.20;99.90;;;;;;5054188;28;20089;-63
2023/10/04 03:00:46;;;;;;;8.57;1.83;;;12.20;99.90;;;;;;5035807;28;20536;-63
2023/10/04 03:03:22;;;;;;;10.77;3.47;;;12.20;99.90;;;;;;5071971;28;20172;-69
2023/10/04 03:05:54;;;;;;;14.45;3.55;;;12.10;99.90;;;;;;5043688;28;20049;-66
2023/10/04 03:08:23;;;;;;;11.13;2.42;;;12.10;99.90;;;;;;5036072;28;20045;-62
2023/10/04 03:10:51;;;;;;;7.78;4.32;;;12.10;99.90;;;;;;5036357;28;20140;-63
2023/10/04 03:13:23;;;;;;;6.30;3.10;;;12.10;99.90;;;;;;5033556;28;20114;-65
2023/10/04 03:15:52;;;;;;;10.93;2.38;;;12.10;99.90;;;;;;5037088;28;20048;-62
2023/10/04 03:18:20;;;;;;;5.10;2.42;;;12.10;99.90;;;;;;5052681;28;20502;-66
2023/10/04 03:23:35;;;;;;;8.60;2.88;;;12.10;99.90;;;;;;5040263;28;20063;-62
2023/10/04 03:26:07;;;;;;;8.50;3.05;;;12.10;99.90;;;;;;5034325;28;20059;-63
2023/10/04 03:28:37;;;;;;;16.73;3.53;;;12.10;99.90;;;;;;5039664;28;20053;-61
2023/10/04 03:31:14;;;;;;;12.30;2.50;;;12.10;99.90;;;;;;5036834;28;20053;-62
2023/10/04 03:33:45;;;;;;;7.18;4.00;;;12.10;99.90;;;;;;5069325;28;20045;-64
2023/10/04 03:36:25;;;;;;;8.05;2.20;;;12.00;99.90;;;;;;5070043;28;20479;-64
2023/10/04 03:38:59;;;;;;;7.88;2.45;;;12.10;99.90;;;;;;5057860;28;20144;-63
2023/10/04 03:41:27;;;;;;;13.98;4.00;;;12.00;99.90;;;;;;5037577;28;20640;-63
2023/10/04 03:44:02;;;;;;;10.95;3.00;;;12.10;99.90;;;;;;5020572;28;20044;-66
2023/10/04 03:46:31;;;;;;;10.27;4.32;;;12.00;99.90;;;;;;5053657;28;20902;-62
2023/10/04 03:49:01;;;;;;;7.85;2.88;;;12.10;99.90;;;;;;5052133;28;20536;-69
2023/10/04 03:51:30;;;;;;;10.60;3.08;;;12.10;99.90;;;;;;5066687;28;20098;-63
2023/10/04 03:54:05;;;;;;;10.85;3.05;;;12.10;99.90;;;;;;5071078;28;20147;-64
2023/10/04 03:56:33;;;;;;;16.48;3.78;;;12.10;99.90;;;;;;5037261;28;20056;-63
2023/10/04 03:59:00;;;;;;;14.82;3.80;;;12.20;99.90;;;;;;5037836;28;20128;-64
2023/10/04 04:01:28;;;;;;;12.57;4.03;;;12.20;99.90;;;;;;5051317;28;20590;-64
2023/10/04 04:03:57;;;;;;;7.10;3.10;;;12.20;99.90;;;;;;5036921;28;20141;-65
2023/10/04 04:06:30;;;;;;;12.00;4.22;;;12.10;99.90;;;;;;5057540;28;20044;-64
2023/10/04 04:09:03;;;;;;;9.32;2.88;;;12.10;99.90;;;;;;5035244;28;20045;-62
2023/10/04 04:11:31;;;;;;;12.75;3.35;;;12.10;99.90;;;;;;5064829;28;20037;-65
2023/10/04 04:13:58;;;;;;;6.22;2.47;;;12.10;99.90;;;;;;5067253;28;20045;-63
2023/10/04 04:16:25;;;;;;;7.15;2.53;;;12.10;99.90;;;;;;5034341;28;20174;-66
2023/10/04 04:18:54;;;;;;;8.90;2.95;;;12.10;99.90;;;;;;5036150;28;20044;-62
2023/10/04 04:21:25;;;;;;;13.73;2.97;;;12.10;99.90;;;;;;5036202;28;20067;-63
2023/10/04 04:23:53;;;;;;;10.10;3.92;;;12.10;99.90;;;;;;5055647;28;20550;-64
2023/10/04 04:26:23;;;;;;;15.07;3.75;;;12.10;99.90;;;;;;5040335;28;20479;-68
2023/10/04 04:29:25;;;;;;;11.50;2.60;;;12.10;99.90;;;;;;5038367;28;20040;-64
2023/10/04 04:31:52;;;;;;;10.13;3.17;;;12.10;99.90;;;;;;5052360;28;20067;-64
2023/10/04 04:34:22;;;;;;;8.57;2.40;;;12.10;99.90;;;;;;5039704;28;20041;-65
2023/10/04 04:36:51;;;;;;;11.02;3.95;;;12.10;99.90;;;;;;5038900;28;20760;-65
2023/10/04 04:39:20;;;;;;;9.25;3.85;;;12.10;99.90;;;;;;5070049;28;20045;-63
2023/10/04 04:41:52;;;;;;;13.45;3.50;;;12.10;99.90;;;;;;5046390;28;20118;-63
2023/10/04 04:44:27;;;;;;;9.63;4.00;;;12.10;99.90;;;;;;5038132;28;20045;-64
2023/10/04 04:46:56;;;;;;;8.10;3.22;;;12.10;99.90;;;;;;5059711;28;20036;-62
2023/10/04 04:49:24;;;;;;;8.63;2.25;;;12.10;99.90;;;;;;5039022;28;20044;-64
2023/10/04 04:51:52;;;;;;;12.77;4.43;;;12.10;99.90;;;;;;5038577;28;20776;-63
2023/10/04 04:54:19;;;;;;;10.00;4.47;;;12.20;99.90;;;;;;5033699;28;20051;-66
2023/10/04 04:56:46;;;;;;;12.38;4.13;;;12.10;99.90;;;;;;5072465;28;20651;-68
2023/10/04 04:59:16;;;;;;;18.98;3.05;;;12.10;99.90;;;;;;5054994;28;20495;-62
2023/10/04 05:01:43;;;;;;;7.57;3.00;;;12.10;99.90;;;;;;5040443;28;20045;-62
2023/10/04 05:04:10;;;;;;;14.45;3.65;;;12.10;99.90;;;;;;5042752;28;20131;-66
2023/10/04 05:06:39;;;;;;;12.20;3.10;;;12.10;99.90;;;;;;5057522;28;20039;-65
2023/10/04 05:09:10;;;;;;;13.60;3.17;;;12.10;99.90;;;;;;5053476;28;20103;-61
2023/10/04 05:11:37;;;;;;;11.23;2.78;;;12.10;99.90;;;;;;5056347;28;20086;-62
2023/10/04 05:14:05;;;;;;;6.90;3.10;;;12.20;99.90;;;;;;5051655;28;20045;-64
2023/10/04 05:16:33;;;;;;;13.23;2.60;;;12.20;99.90;;;;;;5061502;28;20050;-64
2023/10/04 05:19:03;;;;;;;11.85;3.90;;;12.20;99.90;;;;;;5056259;28;20614;-64
2023/10/04 05:21:31;;;;;;;8.07;2.45;;;12.20;99.90;;;;;;5057971;28;20037;-64
2023/10/04 05:23:58;;;;;;;7.05;2.63;;;12.20;99.90;;;;;;5055369;28;20119;-62
2023/10/04 05:26:25;;;;;;;7.10;2.75;;;12.20;99.90;;;;;;5054810;28;20505;-65
2023/10/04 05:28:52;;;;;;;15.07;2.97;;;12.20;99.90;;;;;;5057688;28;20848;-63
2023/10/04 05:31:19;;;;;;;8.23;2.33;;;12.30;99.90;;;;;;5056502;28;20044;-66
2023/10/04 05:33:46;;;;;;;7.85;2.70;;;12.30;99.90;;;;;;5054843;28;20386;-63
2023/10/04 05:36:13;;;;;;;8.38;3.15;;;12.30;99.90;;;;;;5055205;28;20041;-62
2023/10/04 05:38:40;;;;;;;7.55;2.30;;;12.30;99.90;;;;;;5054838;28;20032;-64
2023/10/04 05:41:09;;;;;;;12.88;2.72;;;12.30;99.90;;;;;;5053356;28;20045;-70
2023/10/04 05:43:36;;;;;;;18.40;3.08;;;12.30;99.90;;;;;;5053952;28;20052;-63
2023/10/04 05:46:06;;;;;;;13.45;4.03;;;12.30;99.90;;;;;;5058777;28;20792;-63
2023/10/04 05:48:34;;;;;;;;;;;12.30;99.90;;;;;;5054605;28;20033;-62
2023/10/04 05:51:02;;;;;;;10.32;3.33;;;12.40;99.90;;;;;;5060305;28;19935;-61
2023/10/04 05:53:29;;;;;;;10.82;3.05;;;12.40;99.90;;;;;;5052297;28;20422;-62
2023/10/04 05:55:56;;;;;;;9.38;2.90;;;12.40;99.90;;;;;;5059159;28;20063;-63
2023/10/04 05:58:25;;;;;;;9.43;4.30;;;12.40;99.90;;;;;;5053008;28;20439;-64
2023/10/04 06:00:52;;;;;;;9.07;3.22;;;12.40;99.90;;;;;;5056796;28;20557;-66
2023/10/04 06:03:20;;;;;;;10.38;2.88;;;12.50;99.90;;;;;;5068205;28;20052;-66
2023/10/04 06:05:50;;;;;;;8.30;2.65;;;12.50;99.90;;;;;;5058828;28;20375;-65
2023/10/04 06:08:18;;;;;;;6.60;3.58;;;12.60;99.90;;;;;;5056988;28;20040;-66
2023/10/04 06:10:48;;;;;;;8.15;2.78;;;12.60;99.90;;;;;;5050973;28;20467;-67
2023/10/04 06:13:17;;;;;;;7.55;2.17;;;12.60;99.90;;;;;;5053173;28;20468;-62
2023/10/04 06:15:48;;;;;;;6.15;2.50;;;12.70;99.90;;;;;;5053134;28;20045;-65
2023/10/04 06:18:16;;;;;;;15.30;3.15;;;12.70;99.90;;;;;;5055033;28;20041;-64
2023/10/04 06:20:45;;;;;;;16.88;4.18;;;12.70;99.90;;;;;;5056802;28;20282;-62
2023/10/04 06:23:17;;;;;;;9.50;1.98;;;12.70;99.90;;;;;;5056327;28;20077;-65
2023/10/04 06:25:46;;;;;;;14.40;2.58;;;12.70;99.90;;;;;;5054545;28;20076;-63
2023/10/04 06:28:14;;;;;;;9.98;5.07;;;12.70;99.90;;;;;;5051880;28;20037;-65
2023/10/04 06:30:42;;;;;;;9.93;2.47;;;12.70;99.90;;;;;;5052782;28;20041;-62
2023/10/04 06:33:11;;;;;;;5.85;1.92;;;12.80;99.90;;;;;;5054342;28;20110;-66
2023/10/04 06:35:41;;;;;;;6.85;1.98;;;12.80;99.90;;;;;;5053781;28;20033;-67
2023/10/04 06:38:09;;;;;;;14.07;3.80;;;12.80;99.90;;;;;;5053798;28;20047;-63
2023/10/04 06:40:36;;;;;;;7.30;2.72;;;12.80;99.90;;;;;;5053925;28;20815;-64
2023/10/04 06:43:05;;;;;;;7.80;2.50;;;12.80;99.90;;;;;;5055755;28;20052;-64
2023/10/04 06:45:34;;;;;;;12.07;3.20;;;12.90;99.90;;;;;;5056298;28;20072;-65
2023/10/04 06:48:06;;;;;;;9.75;3.95;;;12.90;99.90;;;;;;5050619;28;20044;-63
2023/10/04 06:50:35;;;;;;;9.80;4.07;;;12.80;99.90;;;;;;5050718;28;20036;-63
2023/10/04 06:53:04;;;;;;;9.27;2.90;;;12.80;99.90;;;;;;5053772;28;20076;-69
2023/10/04 06:55:32;;;;;;;10.05;2.30;;;12.80;99.90;;;;;;5053596;28;20069;-69
2023/10/04 06:58:00;;;;;;;15.38;2.72;;;12.80;99.90;;;;;;5052137;28;20048;-65
2023/10/04 07:00:30;;;;;;;7.93;1.80;;;12.80;99.90;;;;;;5052994;28;20068;-65
2023/10/04 07:03:02;;;;;;;12.55;3.63;;;12.90;99.90;;;;;;5050217;28;20045;-65
2023/10/04 07:05:35;;;;;;;6.25;1.73;;;12.90;99.90;;;;;;5054780;28;20045;-64
2023/10/04 07:08:06;;;;;;;10.77;2.13;;;12.90;99.90;;;;;;5056932;28;20046;-64
2023/10/04 07:10:34;;;;;;;9.27;2.47;;;13.00;99.90;;;;;;5049370;28;20033;-65
2023/10/04 07:13:02;;;;;;;6.57;2.15;;;13.00;99.90;;;;;;5054280;28;20044;-66
2023/10/04 07:15:35;;;;;;;12.07;3.72;;;13.00;99.90;;;;;;5056051;28;20505;-66
2023/10/04 07:18:07;;;;;;;9.00;1.90;;;13.10;99.90;;;;;;5050978;28;20045;-64
2023/10/04 07:20:35;;;;;;;11.15;2.08;;;13.10;99.90;;;;;;5050544;28;20040;-64
2023/10/04 07:23:03;;;;;;;7.28;1.83;;;13.10;99.90;;;;;;5050312;28;20051;-64
2023/10/04 07:25:32;;;;;;;6.15;2.20;;;13.10;99.90;;;;;;5053394;28;20051;-63
2023/10/04 07:28:02;;;;;;;5.55;1.80;;;13.10;99.90;;;;;;5056013;28;20068;-63
2023/10/04 07:30:31;;;;;;;8.07;3.35;;;13.10;99.90;;;;;;5047125;28;20041;-61
2023/10/04 07:32:59;;;;;;;8.38;2.28;;;13.20;99.90;;;;;;5053726;28;20064;-63
2023/10/04 07:35:27;;;;;;;7.63;2.58;;;13.20;99.90;;;;;;5056103;28;20040;-65
2023/10/04 07:37:56;;;;;;;7.88;2.17;;;13.30;99.90;;;;;;5052454;28;20045;-62
2023/10/04 07:40:27;;;;;;;8.50;2.28;;;13.30;99.90;;;;;;5048672;28;20385;-66
2023/10/04 07:42:54;;;;;;;5.82;1.75;;;13.30;99.90;;;;;;5055963;28;20790;-65
2023/10/04 07:45:23;;;;;;;6.45;1.95;;;13.30;99.90;;;;;;5055535;28;20036;-63
2023/10/04 07:47:50;;;;;;;9.35;2.03;;;13.40;99.90;;;;;;5042412;28;20488;-65
2023/10/04 07:50:25;;;;;;;6.68;2.85;;;13.40;99.90;;;;;;5053556;28;20036;-63
2023/10/04 07:52:55;;;;;;;7.28;2.03;;;13.40;99.90;;;;;;5049783;28;20053;-65
2023/10/04 07:55:24;;;;;;;8.32;2.03;;;13.40;99.90;;;;;;5051274;28;20064;-66
2023/10/04 07:58:03;;;;;;;4.38;1.60;;;13.30;99.90;;;;;;5050417;28;20077;-62
2023/10/04 08:00:31;;;;;;;8.60;2.70;;;13.30;99.90;;;;;;5055000;28;20063;-64
2023/10/04 08:02:59;;;;;;;4.75;2.17;;;13.40;99.90;;;;;;5074380;28;20414;-68
2023/10/04 08:05:29;;;;;;;14.77;2.20;;;13.40;99.90;;;;;;5056938;28;20064;-65
2023/10/04 08:07:57;;;;;;;;;;;13.50;99.90;;;;;;5053289;28;20051;-62
2023/10/04 08:10:29;;;;;;;6.13;1.83;;;13.50;99.90;;;;;;5060646;28;19920;-63
2023/10/04 08:13:01;;;;;;;2.90;1.10;;;13.50;99.90;;;;;;5055955;28;20115;-67
2023/10/04 08:15:31;;;;;;;7.72;2.17;;;13.50;99.90;;;;;;5056226;28;20048;-62
2023/10/04 08:17:59;;;;;;;6.60;2.53;;;13.50;99.90;;;;;;5056166;28;20060;-67
2023/10/04 08:20:32;;;;;;;5.10;1.58;;;13.50;99.90;;;;;;5057694;28;20039;-65
2023/10/04 08:23:02;;;;;;;6.25;2.35;;;13.60;99.90;;;;;;5057859;28;20048;-65
2023/10/04 08:25:31;;;;;;;5.37;1.97;;;13.60;99.90;;;;;;5058191;28;20058;-63
2023/10/04 08:28:00;;;;;;;5.18;1.60;;;13.60;99.90;;;;;;5054781;28;20276;-61
2023/10/04 08:30:27;;;;;;;9.07;3.20;;;13.60;99.90;;;;;;5058900;28;20033;-62
2023/10/04 08:32:54;;;;;;;5.93;1.30;;;13.60;99.90;;;;;;5055281;28;20041;-65
2023/10/04 08:35:21;;;;;;;5.22;1.75;;;13.60;99.90;;;;;;5058078;28;20045;-68
2023/10/04 08:37:52;;;;;;;7.00;1.77;;;13.60;99.90;;;;;;5055096;28;20074;-65
2023/10/04 08:40:21;;;;;;;4.70;1.55;;;13.60;99.90;;;;;;5055718;28;20543;-69
2023/10/04 08:42:50;;;;;;;7.03;1.50;;;13.60;99.90;;;;;;5055948;28;20520;-62
2023/10/04 08:45:22;;;;;;;5.03;2.45;;;13.60;99.90;;;;;;5061684;28;20044;-65
2023/10/04 08:47:51;;;;;;;4.05;1.92;;;13.70;99.90;;;;;;5060402;28;20056;-67
2023/10/04 08:50:26;;;;;;;7.43;2.45;;;13.70;99.90;;;;;;5055532;28;20041;-64
2023/10/04 08:53:03;;;;;;;8.95;1.45;;;13.70;99.90;;;;;;5054969;28;20805;-65
2023/10/04 08:55:41;;;;;;;10.02;2.15;;;13.70;99.90;;;;;;5057991;28;20480;-63
2023/10/04 08:58:10;;;;;;;5.25;2.28;;;13.70;99.90;;;;;;5055982;28;20056;-66
2023/10/04 09:00:43;;;;;;;5.70;1.98;;;13.70;99.90;;;;;;5054889;28;20036;-63
2023/10/04 09:03:15;;;;;;;6.45;2.67;;;13.80;99.90;;;;;;5049244;28;20045;-63
2023/10/04 09:05:46;;;;;;;12.30;2.35;;;13.80;99.90;;;;;;5059791;28;20037;-62
2023/10/04 09:08:16;;;;;;;8.85;2.63;;;13.80;99.90;;;;;;5056225;28;20045;-63
2023/10/04 09:10:44;;;;;;;10.95;2.55;;;13.80;99.90;;;;;;5055182;28;20128;-66
2023/10/04 09:13:12;;;;;;;16.13;3.13;;;13.80;99.90;;;;;;5054210;28;20637;-64
2023/10/04 09:15:40;;;;;;;8.35;1.65;;;13.80;99.90;;;;;;5055685;28;20051;-62
2023/10/04 09:18:09;;;;;;;5.47;1.08;;;13.90;99.90;;;;;;5053785;28;20075;-62
2023/10/04 09:20:36;;;;;;;9.98;2.70;;;14.00;99.90;;;;;;5059685;28;20049;-64
2023/10/04 09:23:22;;;;;;;4.20;1.38;;;14.20;99.90;;;;;;5054877;28;20111;-63
2023/10/04 09:25:53;;;;;;;4.47;1.50;;;14.20;99.90;;;;;;5057438;28;20132;-64
2023/10/04 09:28:35;;;;;;;4.40;0.93;;;14.30;99.90;;;;;;5057739;28;20045;-64
2023/10/04 09:31:10;;;;;;;6.85;1.00;;;14.30;99.90;;;;;;5051945;28;20044;-62
2023/10/04 09:33:38;;;;;;;4.82;1.20;;;14.40;99.90;;;;;;5053742;28;20059;-68
2023/10/04 09:36:06;;;;;;;9.30;2.25;;;14.50;99.90;;;;;;5056168;28;20660;-64
2023/10/04 09:38:35;;;;;;;7.50;1.83;;;14.40;99.90;;;;;;5055042;28;20043;-64
2023/10/04 09:41:03;;;;;;;7.70;1.87;;;14.40;99.90;;;;;;5055190;28;20497;-65
2023/10/04 09:43:37;;;;;;;6.95;1.35;;;14.50;99.90;;;;;;5052414;28;20747;-65
2023/10/04 09:46:10;;;;;;;10.73;1.63;;;14.40;99.90;;;;;;5037130;28;20037;-64
2023/10/04 09:48:43;;;;;;;4.10;2.05;;;14.40;99.90;;;;;;5056541;28;20046;-68
2023/10/04 09:51:11;;;;;;;6.13;1.42;;;14.30;99.90;;;;;;5055380;28;20029;-63
2023/10/04 09:53:41;;;;;;;5.47;1.58;;;14.30;99.90;;;;;;5049545;28;20040;-64
2023/10/04 09:56:12;;;;;;;7.07;2.35;;;14.30;99.90;;;;;;5052970;28;20564;-63
2023/10/04 09:58:48;;;;;;;7.15;2.05;;;14.20;99.90;;;;;;5057311;28;20033;-67
2023/10/04 10:01:19;;;;;;;4.03;1.50;;;14.20;99.90;;;;;;5054823;28;20121;-64
2023/10/04 10:03:56;;;;;;;4.70;1.50;;;14.10;99.90;;;;;;5054879;28;20048;-65
2023/10/04 10:06:26;;;;;;;4.40;1.08;;;14.10;99.90;;;;;;5053385;28;20053;-64
2023/10/04 10:09:05;;;;;;;7.75;2.78;;;14.20;99.90;;;;;;5055545;28;20045;-64
2023/10/04 10:11:32;;;;;;;5.53;1.50;;;14.20;99.90;;;;;;5055075;28;20041;-66
2023/10/04 10:14:03;;;;;;;4.50;1.20;;;14.20;99.90;;;;;;5037428;28;20508;-64
2023/10/04 10:16:33;;;;;;;6.03;1.65;;;14.20;99.90;;;;;;5053515;28;20045;-62
2023/10/04 10:19:03;;;;;;;3.15;1.55;;;14.20;99.90;;;;;;5055331;28;20250;-68
2023/10/04 10:22:02;;;;;;;14.05;2.25;;;14.10;99.90;;;;;;5054504;28;20055;-62
2023/10/04 10:24:29;;;;;;;8.57;2.67;;;14.10;99.90;;;;;;5054977;28;20037;-64
2023/10/04 10:27:08;;;;;;;13.82;3.35;;;14.00;99.90;;;;;;5052575;28;20759;-70
2023/10/04 10:29:39;;;;;;;5.55;2.90;;;14.00;99.90;;;;;;5053132;28;20040;-65
2023/10/04 10:32:23;;;;;;;4.60;2.42;;;14.00;99.90;;;;;;5054137;28;20522;-64
2023/10/04 10:35:17;;;;;;;10.50;2.60;;;14.10;99.90;;;;;;5052492;28;20045;-63
2023/10/04 10:37:44;;;;;;;5.78;1.35;;;14.10;99.90;;;;;;5053350;28;20049;-61
2023/10/04 10:40:31;;;;;;;7.78;1.67;;;14.10;99.90;;;;;;5054669;28;20041;-62
2023/10/04 10:43:11;;;;;;;6.85;1.50;;;14.10;99.90;;;;;;5051100;28;20494;-63
2023/10/04 10:45:38;;;;;;;5.07;1.60;;;14.10;99.90;;;;;;5057949;28;20049;-65
2023/10/04 10:48:11;;;;;;;8.05;1.58;;;14.20;99.90;;;;;;5050083;28;20049;-66
2023/10/04 10:50:41;;;;;;;2.83;1.20;;;14.20;99.90;;;;;;5054314;28;20043;-65
2023/10/04 10:53:10;;;;;;;9.05;2.38;;;14.30;99.90;;;;;;5054268;28;20102;-63
2023/10/04 10:55:41;;;;;;;5.28;1.55;;;14.40;99.90;;;;;;5055953;28;20052;-62
2023/10/04 10:58:08;;;;;;;;;;;14.40;99.90;;;;;;5055075;28;20040;-66
2023/10/04 11:00:35;;;;;;;4.47;1.80;;;14.40;99.90;;;;;;5052650;28;19947;-64
2023/10/04 11:03:09;;;;;;;8.52;1.20;;;14.40;99.90;;;;;;5048230;28;20387;-66
2023/10/04 11:05:37;;;;;;;6.20;1.92;;;14.40;99.90;;;;;;5053972;28;20059;-65
2023/10/04 11:08:08;;;;;;;3.85;1.83;;;14.50;99.90;;;;;;5054380;28;20376;-62
2023/10/04 11:10:36;;;;;;;17.65;2.88;;;14.60;99.90;;;;;;5035249;28;20068;-63
2023/10/04 11:13:08;;;;;;;5.32;2.35;;;14.60;99.90;;;;;;5053874;28;20079;-63
2023/10/04 11:15:36;;;;;;;5.53;2.55;;;14.60;99.90;;;;;;5053372;28;20120;-61
2023/10/04 11:18:06;;;;;;;5.53;1.13;;;14.70;99.90;;;;;;5050260;28;20072;-65
2023/10/04 11:20:36;;;;;;;9.00;2.00;;;14.60;99.90;;;;;;5051502;28;20037;-61
2023/10/04 11:23:03;;;;;;;2.20;1.13;;;14.70;99.90;;;;;;5052707;28;20044;-64
2023/10/04 11:25:31;;;;;;;7.43;1.50;;;14.70;99.90;;;;;;5053203;28;20540;-63
2023/10/04 11:27:58;;;;;;;5.72;1.70;;;14.70;99.90;;;;;;5053023;28;20033;-63
2023/10/04 11:30:27;;;;;;;7.47;1.90;;;14.70;99.90;;;;;;5048122;28;20041;-66
2023/10/04 11:32:56;;;;;;;10.55;2.58;;;14.60;99.90;;;;;;5057245;28;20053;-62
2023/10/04 11:35:34;;;;;;;3.38;1.05;;;14.60;99.90;;;;;;5055825;28;20664;-65
2023/10/04 11:38:05;;;;;;;4.20;1.45;;;14.60;99.90;;;;;;5055159;28;20051;-64
2023/10/04 11:40:34;;;;;;;8.50;2.05;;;14.60;99.90;;;;;;5054520;28;20029;-63
2023/10/04 11:43:02;;;;;;;7.35;2.13;;;14.60;99.90;;;;;;5057060;28;20120;-64
2023/10/04 11:45:31;;;;;;;5.75;1.25;;;14.60;99.90;;;;;;5052588;28;20054;-66
2023/10/04 11:47:59;;;;;;;2.58;1.45;;;14.60;99.90;;;;;;5052714;28;20471;-66
2023/10/04 11:50:47;;;;;;;7.25;3.35;;;14.60;99.90;;;;;;5054900;28;20043;-63
2023/10/04 11:53:32;;;;;;;3.90;1.70;;;14.60;99.90;;;;;;5053379;28;20804;-62
2023/10/04 11:56:09;;;;;;;6.65;1.30;;;14.60;99.90;;;;;;5051960;28;20048;-68
2023/10/04 11:58:43;;;;;;;5.95;1.50;;;14.60;99.90;;;;;;5053633;28;20048;-64
2023/10/04 12:01:11;;;;;;;8.82;3.33;;;14.50;99.90;;;;;;5050515;28;20048;-66
2023/10/04 12:03:38;;;;;;;8.90;1.48;;;14.50;99.90;;;;;;5051795;28;20044;-71
2023/10/04 12:06:06;;;;;;;5.13;1.90;;;14.60;99.90;;;;;;5052381;28;20103;-66
2023/10/04 12:08:35;;;;;;;7.07;1.52;;;14.60;99.90;;;;;;5056506;28;20545;-64
2023/10/04 12:11:13;;;;;;;4.75;1.65;;;14.70;99.90;;;;;;5052659;28;20452;-62
2023/10/04 12:13:40;;;;;;;6.88;2.10;;;14.60;99.90;;;;;;5031343;28;20581;-63
2023/10/04 12:16:07;;;;;;;12.02;2.13;;;14.60;99.90;;;;;;5053902;28;20131;-63
2023/10/04 12:18:34;;;;;;;4.53;1.85;;;14.70;99.90;;;;;;5053403;28;20137;-64
2023/10/04 12:21:01;;;;;;;15.10;3.05;;;14.70;99.90;;;;;;5031643;28;20040;-66
2023/10/04 12:23:30;;;;;;;7.25;2.08;;;14.60;99.90;;;;;;5060714;28;20037;-66
2023/10/04 12:25:57;;;;;;;10.23;2.28;;;14.50;99.90;;;;;;5053201;28;20041;-68
2023/10/04 12:28:24;;;;;;;5.00;1.20;;;14.50;99.90;;;;;;5051602;28;20487;-65
2023/10/04 12:30:51;;;;;;;7.25;1.42;;;14.50;99.90;;;;;;5053677;28;20143;-62
2023/10/04 12:33:18;;;;;;;4.30;1.42;;;14.60;99.90;;;;;;5053530;28;20051;-73
2023/10/04 12:35:47;;;;;;;4.65;1.73;;;14.80;99.90;;;;;;5052762;28;20874;-63
2023/10/04 12:38:14;;;;;;;7.82;1.55;;;14.80;99.90;;;;;;5051436;28;20647;-67
2023/10/04 12:40:42;;;;;;;6.07;2.05;;;14.90;99.90;;;;;;5054326;28;20099;-64
2023/10/04 12:43:09;;;;;;;8.02;2.65;;;14.90;99.90;;;;;;5052280;28;20063;-65
2023/10/04 12:45:36;;;;;;;5.43;2.40;;;15.10;99.90;;;;;;5056657;28;20115;-63
2023/10/04 12:48:04;;;;;;;5.15;1.48;;;15.00;99.90;;;;;;5057345;28;20123;-63
2023/10/04 12:50:32;;;;;;;6.40;1.17;;;15.00;99.90;;;;;;5057799;28;20044;-63
2023/10/04 12:53:01;;;;;;;5.03;1.33;;;15.00;99.90;;;;;;5059546;28;20053;-63
2023/10/04 12:55:29;;;;;;;4.53;1.35;;;15.00;99.90;;;;;;5053986;28;20119;-65
2023/10/04 12:57:55;;;;;;;3.88;1.20;;;15.10;99.90;;;;;;5060601;28;20046;-63
2023/10/04 13:00:25;;;;;;;5.10;1.50;;;15.00;99.90;;;;;;5056013;28;20055;-64
2023/10/04 13:02:56;;;;;;;12.20;2.05;;;15.10;99.90;;;;;;5055529;28;20044;-65